sensor_id;sensor_type;location;lat;lon;timestamp;P1;durP1;ratioP1;P2;durP2;ratioP2
52342;SDS011;38277;51.972;4.624;2023-01-29T00:00:12;26.9;;;13.4;;
52342;SDS011;38277;51.972;4.624;2023-01-29T00:04:25;23.9;;;13.4;;
52342;SDS011;38277;51.972;4.624;2023-01-29T00:08:55;21.5;;;12.9;;
52342;SDS011;38277;51.972;4.624;2023-01-29T00:13:39;21.2;;;12.6;;
52342;SDS011;38277;51.972;4.624;2023-01-29T00:18:04;26.9;;;13.9;;
52342;SDS011;38277;51.972;4.624;2023-01-29T00:22:19;21.4;;;12.6;;
52342;SDS011;38277;51.972;4.624;2023-01-29T00:27:13;22.0;;;12.5;;
52342;SDS011;38277;51.972;4.624;2023-01-29T00:31:31;22.1;;;13.4;;
52342;SDS011;38277;51.972;4.624;2023-01-29T00:36:00;22.4;;;12.4;;
52342;SDS011;38277;51.972;4.624;2023-01-29T00:40:21;25.3;;;13.4;;
52342;SDS011;38277;51.972;4.624;2023-01-29T00:44:59;24.4;;;13.1;;
52342;SDS011;38277;51.972;4.624;2023-01-29T00:49:47;23.1;;;12.2;;
52342;SDS011;38277;51.972;4.624;2023-01-29T00:54:11;21.9;;;12.9;;
52342;SDS011;38277;51.972;4.624;2023-01-29T00:58:28;20.7;;;13.2;;
52342;SDS011;38277;51.972;4.624;2023-01-29T01:03:08;22.7;;;12.7;;
52342;SDS011;38277;51.972;4.624;2023-01-29T01:07:40;23.1;;;13.1;;
52342;SDS011;38277;51.972;4.624;2023-01-29T01:12:05;24.9;;;13.7;;
52342;SDS011;38277;51.972;4.624;2023-01-29T01:16:30;23.3;;;13.7;;
52342;SDS011;38277;51.972;4.624;2023-01-29T01:25:48;23.9;;;13.6;;
52342;SDS011;38277;51.972;4.624;2023-01-29T01:30:09;23.4;;;13.9;;
52342;SDS011;38277;51.972;4.624;2023-01-29T01:34:24;22.8;;;13.2;;
52342;SDS011;38277;51.972;4.624;2023-01-29T01:39:14;25.1;;;14.0;;
52342;SDS011;38277;51.972;4.624;2023-01-29T01:48:00;25.5;;;15.1;;
52342;SDS011;38277;51.972;4.624;2023-01-29T01:52:48;24.0;;;14.2;;
52342;SDS011;38277;51.972;4.624;2023-01-29T02:01:26;21.8;;;13.5;;
52342;SDS011;38277;51.972;4.624;2023-01-29T02:05:53;23.0;;;13.4;;
52342;SDS011;38277;51.972;4.624;2023-01-29T02:10:34;22.9;;;13.6;;
52342;SDS011;38277;51.972;4.624;2023-01-29T02:14:57;25.8;;;13.1;;
52342;SDS011;38277;51.972;4.624;2023-01-29T02:20:22;26.3;;;14.9;;
52342;SDS011;38277;51.972;4.624;2023-01-29T02:26:08;23.3;;;13.8;;
52342;SDS011;38277;51.972;4.624;2023-01-29T02:29:58;24.5;;;14.3;;
52342;SDS011;38277;51.972;4.624;2023-01-29T02:34:45;22.8;;;13.3;;
52342;SDS011;38277;51.972;4.624;2023-01-29T02:38:22;25.2;;;14.8;;
52342;SDS011;38277;51.972;4.624;2023-01-29T02:42:10;28.9;;;16.9;;
52342;SDS011;38277;51.972;4.624;2023-01-29T02:47:15;26.6;;;16.3;;
52342;SDS011;38277;51.972;4.624;2023-01-29T02:50:57;26.3;;;14.9;;
52342;SDS011;38277;51.972;4.624;2023-01-29T02:56:46;27.0;;;16.3;;
52342;SDS011;38277;51.972;4.624;2023-01-29T03:00:04;25.4;;;15.8;;
52342;SDS011;38277;51.972;4.624;2023-01-29T03:04:30;25.8;;;16.2;;
52342;SDS011;38277;51.972;4.624;2023-01-29T03:09:03;29.4;;;17.5;;
52342;SDS011;38277;51.972;4.624;2023-01-29T03:14:31;28.1;;;17.3;;
52342;SDS011;38277;51.972;4.624;2023-01-29T03:17:56;30.3;;;17.9;;
52342;SDS011;38277;51.972;4.624;2023-01-29T03:22:29;30.1;;;18.4;;
52342;SDS011;38277;51.972;4.624;2023-01-29T03:26:55;29.9;;;17.2;;
52342;SDS011;38277;51.972;4.624;2023-01-29T03:36:00;30.7;;;18.7;;
52342;SDS011;38277;51.972;4.624;2023-01-29T03:40:48;38.7;;;19.6;;
52342;SDS011;38277;51.972;4.624;2023-01-29T03:46:09;27.7;;;17.4;;
52342;SDS011;38277;51.972;4.624;2023-01-29T03:54:17;31.3;;;18.4;;
52342;SDS011;38277;51.972;4.624;2023-01-29T03:58:46;29.9;;;19.3;;
52342;SDS011;38277;51.972;4.624;2023-01-29T04:12:09;30.5;;;18.1;;
52342;SDS011;38277;51.972;4.624;2023-01-29T04:16:54;33.5;;;18.2;;
52342;SDS011;38277;51.972;4.624;2023-01-29T04:21:07;29.4;;;17.8;;
52342;SDS011;38277;51.972;4.624;2023-01-29T04:25:52;27.3;;;17.1;;
52342;SDS011;38277;51.972;4.624;2023-01-29T04:30:25;28.8;;;17.8;;
52342;SDS011;38277;51.972;4.624;2023-01-29T04:35:13;31.7;;;18.9;;
52342;SDS011;38277;51.972;4.624;2023-01-29T04:39:48;31.4;;;18.1;;
52342;SDS011;38277;51.972;4.624;2023-01-29T04:44:34;28.7;;;17.2;;
52342;SDS011;38277;51.972;4.624;2023-01-29T04:49:15;27.6;;;17.0;;
52342;SDS011;38277;51.972;4.624;2023-01-29T04:52:48;27.7;;;17.8;;
52342;SDS011;38277;51.972;4.624;2023-01-29T04:57:08;30.2;;;17.9;;
52342;SDS011;38277;51.972;4.624;2023-01-29T05:01:26;27.7;;;17.8;;
52342;SDS011;38277;51.972;4.624;2023-01-29T05:05:59;31.7;;;18.9;;
52342;SDS011;38277;51.972;4.624;2023-01-29T05:10:24;28.8;;;17.7;;
52342;SDS011;38277;51.972;4.624;2023-01-29T05:15:07;30.0;;;18.6;;
52342;SDS011;38277;51.972;4.624;2023-01-29T05:19:30;29.8;;;19.5;;
52342;SDS011;38277;51.972;4.624;2023-01-29T05:24:05;28.7;;;18.0;;
52342;SDS011;38277;51.972;4.624;2023-01-29T05:28:42;28.7;;;18.5;;
52342;SDS011;38277;51.972;4.624;2023-01-29T05:32:52;31.4;;;18.6;;
52342;SDS011;38277;51.972;4.624;2023-01-29T05:37:26;32.2;;;17.9;;
52342;SDS011;38277;51.972;4.624;2023-01-29T05:42:19;29.2;;;17.6;;
52342;SDS011;38277;51.972;4.624;2023-01-29T05:51:08;28.7;;;17.8;;
52342;SDS011;38277;51.972;4.624;2023-01-29T06:00:05;28.6;;;17.2;;
52342;SDS011;38277;51.972;4.624;2023-01-29T06:04:49;28.1;;;16.9;;
52342;SDS011;38277;51.972;4.624;2023-01-29T06:08:59;28.2;;;17.1;;
52342;SDS011;38277;51.972;4.624;2023-01-29T06:13:36;29.1;;;17.3;;
52342;SDS011;38277;51.972;4.624;2023-01-29T06:18:16;29.3;;;17.3;;
52342;SDS011;38277;51.972;4.624;2023-01-29T06:22:44;31.3;;;18.8;;
52342;SDS011;38277;51.972;4.624;2023-01-29T06:27:37;27.7;;;17.8;;
52342;SDS011;38277;51.972;4.624;2023-01-29T06:32:25;26.5;;;15.9;;
52342;SDS011;38277;51.972;4.624;2023-01-29T06:36:09;30.4;;;17.5;;
52342;SDS011;38277;51.972;4.624;2023-01-29T06:40:40;30.1;;;18.1;;
52342;SDS011;38277;51.972;4.624;2023-01-29T06:45:54;29.7;;;18.0;;
52342;SDS011;38277;51.972;4.624;2023-01-29T06:49:36;29.2;;;18.0;;
52342;SDS011;38277;51.972;4.624;2023-01-29T06:54:08;32.3;;;19.6;;
52342;SDS011;38277;51.972;4.624;2023-01-29T06:58:47;30.4;;;19.3;;
52342;SDS011;38277;51.972;4.624;2023-01-29T07:03:43;28.9;;;18.3;;
52342;SDS011;38277;51.972;4.624;2023-01-29T07:09:10;28.2;;;17.1;;
52342;SDS011;38277;51.972;4.624;2023-01-29T07:12:07;28.2;;;18.0;;
52342;SDS011;38277;51.972;4.624;2023-01-29T07:16:30;28.4;;;17.3;;
52342;SDS011;38277;51.972;4.624;2023-01-29T07:22:03;27.9;;;17.8;;
52342;SDS011;38277;51.972;4.624;2023-01-29T07:25:41;28.5;;;17.4;;
52342;SDS011;38277;51.972;4.624;2023-01-29T07:30:06;27.8;;;17.7;;
52342;SDS011;38277;51.972;4.624;2023-01-29T07:34:45;26.8;;;16.7;;
52342;SDS011;38277;51.972;4.624;2023-01-29T07:43:20;27.2;;;16.3;;
52342;SDS011;38277;51.972;4.624;2023-01-29T07:47:53;29.2;;;18.6;;
52342;SDS011;38277;51.972;4.624;2023-01-29T07:52:47;29.7;;;19.5;;
52342;SDS011;38277;51.972;4.624;2023-01-29T08:01:46;31.2;;;19.7;;
52342;SDS011;38277;51.972;4.624;2023-01-29T08:06:03;26.9;;;17.6;;
52342;SDS011;38277;51.972;4.624;2023-01-29T08:10:44;31.1;;;19.4;;
52342;SDS011;38277;51.972;4.624;2023-01-29T08:19:19;28.0;;;17.1;;
52342;SDS011;38277;51.972;4.624;2023-01-29T08:24:17;28.8;;;17.0;;
52342;SDS011;38277;51.972;4.624;2023-01-29T08:28:22;30.1;;;19.3;;
52342;SDS011;38277;51.972;4.624;2023-01-29T08:37:51;29.7;;;18.7;;
52342;SDS011;38277;51.972;4.624;2023-01-29T08:42:16;27.7;;;18.2;;
52342;SDS011;38277;51.972;4.624;2023-01-29T08:46:41;28.0;;;18.0;;
52342;SDS011;38277;51.972;4.624;2023-01-29T08:51:16;29.4;;;19.2;;
52342;SDS011;38277;51.972;4.624;2023-01-29T08:55:27;28.6;;;17.7;;
52342;SDS011;38277;51.972;4.624;2023-01-29T09:00:17;29.9;;;18.4;;
52342;SDS011;38277;51.972;4.624;2023-01-29T09:04:42;32.6;;;20.9;;
52342;SDS011;38277;51.972;4.624;2023-01-29T09:08:52;29.8;;;19.2;;
52342;SDS011;38277;51.972;4.624;2023-01-29T09:14:09;33.5;;;20.4;;
52342;SDS011;38277;51.972;4.624;2023-01-29T09:18:15;32.7;;;19.3;;
52342;SDS011;38277;51.972;4.624;2023-01-29T09:23:26;30.8;;;20.2;;
52342;SDS011;38277;51.972;4.624;2023-01-29T09:31:36;30.2;;;19.4;;
52342;SDS011;38277;51.972;4.624;2023-01-29T09:35:52;35.8;;;21.4;;
52342;SDS011;38277;51.972;4.624;2023-01-29T09:40:33;31.2;;;19.4;;
52342;SDS011;38277;51.972;4.624;2023-01-29T09:49:34;35.6;;;21.6;;
52342;SDS011;38277;51.972;4.624;2023-01-29T09:54:15;32.5;;;20.5;;
52342;SDS011;38277;51.972;4.624;2023-01-29T09:58:45;32.8;;;20.5;;
52342;SDS011;38277;51.972;4.624;2023-01-29T10:09:12;33.9;;;21.0;;
52342;SDS011;38277;51.972;4.624;2023-01-29T10:14:15;36.0;;;21.8;;
52342;SDS011;38277;51.972;4.624;2023-01-29T10:25:46;36.4;;;21.7;;
52342;SDS011;38277;51.972;4.624;2023-01-29T10:29:55;36.0;;;22.6;;
52342;SDS011;38277;51.972;4.624;2023-01-29T10:34:32;36.0;;;22.0;;
52342;SDS011;38277;51.972;4.624;2023-01-29T10:43:50;34.6;;;22.1;;
52342;SDS011;38277;51.972;4.624;2023-01-29T10:49:57;35.1;;;22.5;;
52342;SDS011;38277;51.972;4.624;2023-01-29T10:55:56;33.5;;;22.3;;
52342;SDS011;38277;51.972;4.624;2023-01-29T10:59:58;38.0;;;23.0;;
52342;SDS011;38277;51.972;4.624;2023-01-29T11:02:19;37.3;;;21.7;;
52342;SDS011;38277;51.972;4.624;2023-01-29T11:06:27;32.0;;;20.9;;
52342;SDS011;38277;51.972;4.624;2023-01-29T11:11:11;32.3;;;22.1;;
52342;SDS011;38277;51.972;4.624;2023-01-29T11:15:11;38.2;;;23.4;;
52342;SDS011;38277;51.972;4.624;2023-01-29T11:20:10;34.3;;;22.0;;
52342;SDS011;38277;51.972;4.624;2023-01-29T11:24:13;33.0;;;21.7;;
52342;SDS011;38277;51.972;4.624;2023-01-29T11:29:42;31.7;;;21.1;;
52342;SDS011;38277;51.972;4.624;2023-01-29T11:33:22;31.0;;;22.1;;
52342;SDS011;38277;51.972;4.624;2023-01-29T11:38:22;34.0;;;22.0;;
52342;SDS011;38277;51.972;4.624;2023-01-29T11:42:00;32.8;;;21.6;;
52342;SDS011;38277;51.972;4.624;2023-01-29T11:46:31;34.9;;;23.5;;
52342;SDS011;38277;51.972;4.624;2023-01-29T11:50:58;37.6;;;22.5;;
52342;SDS011;38277;51.972;4.624;2023-01-29T11:55:25;32.3;;;22.0;;
52342;SDS011;38277;51.972;4.624;2023-01-29T12:04:29;35.8;;;22.7;;
52342;SDS011;38277;51.972;4.624;2023-01-29T12:09:00;31.7;;;22.3;;
52342;SDS011;38277;51.972;4.624;2023-01-29T12:13:27;31.2;;;21.1;;
52342;SDS011;38277;51.972;4.624;2023-01-29T12:18:02;32.3;;;21.2;;
52342;SDS011;38277;51.972;4.624;2023-01-29T12:22:48;35.4;;;21.3;;
52342;SDS011;38277;51.972;4.624;2023-01-29T12:27:18;31.7;;;20.4;;
52342;SDS011;38277;51.972;4.624;2023-01-29T12:31:40;32.7;;;21.0;;
52342;SDS011;38277;51.972;4.624;2023-01-29T12:40:33;31.1;;;19.8;;
52342;SDS011;38277;51.972;4.624;2023-01-29T12:44:52;29.6;;;18.8;;
52342;SDS011;38277;51.972;4.624;2023-01-29T12:49:25;30.5;;;20.3;;
52342;SDS011;38277;51.972;4.624;2023-01-29T12:54:13;30.4;;;20.7;;
52342;SDS011;38277;51.972;4.624;2023-01-29T12:59:08;33.2;;;20.2;;
52342;SDS011;38277;51.972;4.624;2023-01-29T13:02:52;29.5;;;19.6;;
52342;SDS011;38277;51.972;4.624;2023-01-29T13:08:25;27.3;;;18.9;;
52342;SDS011;38277;51.972;4.624;2023-01-29T13:12:14;33.7;;;20.2;;
52342;SDS011;38277;51.972;4.624;2023-01-29T13:17:26;29.0;;;19.3;;
52342;SDS011;38277;51.972;4.624;2023-01-29T13:20:55;29.1;;;19.0;;
52342;SDS011;38277;51.972;4.624;2023-01-29T13:30:23;31.7;;;19.7;;
52342;SDS011;38277;51.972;4.624;2023-01-29T13:35:26;30.8;;;18.2;;
52342;SDS011;38277;51.972;4.624;2023-01-29T13:39:00;28.8;;;17.8;;
52342;SDS011;38277;51.972;4.624;2023-01-29T13:44:14;28.2;;;19.4;;
52342;SDS011;38277;51.972;4.624;2023-01-29T13:48:24;28.3;;;18.2;;
52342;SDS011;38277;51.972;4.624;2023-01-29T13:53:28;29.7;;;19.0;;
52342;SDS011;38277;51.972;4.624;2023-01-29T13:57:31;26.4;;;17.6;;
52342;SDS011;38277;51.972;4.624;2023-01-29T14:02:33;30.1;;;19.3;;
52342;SDS011;38277;51.972;4.624;2023-01-29T14:06:14;28.3;;;17.4;;
52342;SDS011;38277;51.972;4.624;2023-01-29T14:11:35;30.5;;;17.2;;
52342;SDS011;38277;51.972;4.624;2023-01-29T14:15:24;32.1;;;18.7;;
52342;SDS011;38277;51.972;4.624;2023-01-29T14:20:29;30.0;;;18.6;;
52342;SDS011;38277;51.972;4.624;2023-01-29T14:24:19;27.1;;;16.9;;
52342;SDS011;38277;51.972;4.624;2023-01-29T14:29:26;24.8;;;15.5;;
52342;SDS011;38277;51.972;4.624;2023-01-29T14:32:53;26.7;;;16.2;;
52342;SDS011;38277;51.972;4.624;2023-01-29T14:38:20;24.5;;;16.2;;
52342;SDS011;38277;51.972;4.624;2023-01-29T14:41:54;29.0;;;17.6;;
52342;SDS011;38277;51.972;4.624;2023-01-29T14:47:07;26.5;;;15.4;;
52342;SDS011;38277;51.972;4.624;2023-01-29T14:51:09;25.5;;;15.5;;
52342;SDS011;38277;51.972;4.624;2023-01-29T14:55:42;26.5;;;17.4;;
52342;SDS011;38277;51.972;4.624;2023-01-29T15:00:14;27.8;;;15.4;;
52342;SDS011;38277;51.972;4.624;2023-01-29T15:05:16;27.6;;;16.9;;
52342;SDS011;38277;51.972;4.624;2023-01-29T15:09:11;31.8;;;17.7;;
52342;SDS011;38277;51.972;4.624;2023-01-29T15:14:17;29.2;;;17.1;;
52342;SDS011;38277;51.972;4.624;2023-01-29T15:18:00;28.1;;;17.1;;
52342;SDS011;38277;51.972;4.624;2023-01-29T15:23:30;30.6;;;16.8;;
52342;SDS011;38277;51.972;4.624;2023-01-29T15:27:04;32.5;;;17.9;;
52342;SDS011;38277;51.972;4.624;2023-01-29T15:36:10;27.5;;;16.3;;
52342;SDS011;38277;51.972;4.624;2023-01-29T15:41:17;30.3;;;18.1;;
52342;SDS011;38277;51.972;4.624;2023-01-29T15:45:01;30.9;;;17.6;;
52342;SDS011;38277;51.972;4.624;2023-01-29T15:49:24;29.3;;;18.4;;
52342;SDS011;38277;51.972;4.624;2023-01-29T15:54:49;30.0;;;17.9;;
52342;SDS011;38277;51.972;4.624;2023-01-29T15:59:18;29.4;;;17.1;;
52342;SDS011;38277;51.972;4.624;2023-01-29T16:02:52;29.6;;;18.4;;
52342;SDS011;38277;51.972;4.624;2023-01-29T16:07:46;30.0;;;18.2;;
52342;SDS011;38277;51.972;4.624;2023-01-29T16:11:52;30.6;;;18.7;;
52342;SDS011;38277;51.972;4.624;2023-01-29T16:21:00;28.3;;;17.6;;
52342;SDS011;38277;51.972;4.624;2023-01-29T16:25:20;33.2;;;19.7;;
52342;SDS011;38277;51.972;4.624;2023-01-29T16:48:33;32.9;;;19.7;;
52342;SDS011;38277;51.972;4.624;2023-01-29T16:56:57;35.0;;;20.7;;
52342;SDS011;38277;51.972;4.624;2023-01-29T17:01:36;32.7;;;19.4;;
52342;SDS011;38277;51.972;4.624;2023-01-29T17:05:58;34.1;;;19.9;;
52342;SDS011;38277;51.972;4.624;2023-01-29T17:14:58;36.3;;;20.9;;
52342;SDS011;38277;51.972;4.624;2023-01-29T17:19:30;32.0;;;20.6;;
52342;SDS011;38277;51.972;4.624;2023-01-29T17:23:56;32.8;;;19.6;;
52342;SDS011;38277;51.972;4.624;2023-01-29T17:33:12;33.1;;;20.0;;
52342;SDS011;38277;51.972;4.624;2023-01-29T17:37:43;36.9;;;21.8;;
52342;SDS011;38277;51.972;4.624;2023-01-29T17:42:02;34.6;;;21.2;;
52342;SDS011;38277;51.972;4.624;2023-01-29T17:46:22;36.2;;;20.8;;
52342;SDS011;38277;51.972;4.624;2023-01-29T17:51:16;33.2;;;20.5;;
52342;SDS011;38277;51.972;4.624;2023-01-29T17:55:31;36.8;;;22.4;;
52342;SDS011;38277;51.972;4.624;2023-01-29T18:00:00;32.0;;;21.0;;
52342;SDS011;38277;51.972;4.624;2023-01-29T18:05:04;35.0;;;21.3;;
52342;SDS011;38277;51.972;4.624;2023-01-29T18:09:03;36.7;;;23.1;;
52342;SDS011;38277;51.972;4.624;2023-01-29T18:13:36;36.3;;;21.7;;
52342;SDS011;38277;51.972;4.624;2023-01-29T18:18:04;36.2;;;21.0;;
52342;SDS011;38277;51.972;4.624;2023-01-29T18:23:05;31.9;;;21.1;;
52342;SDS011;38277;51.972;4.624;2023-01-29T18:27:01;34.3;;;20.9;;
52342;SDS011;38277;51.972;4.624;2023-01-29T18:31:47;28.9;;;18.6;;
52342;SDS011;38277;51.972;4.624;2023-01-29T18:35:49;37.0;;;20.8;;
52342;SDS011;38277;51.972;4.624;2023-01-29T18:40:35;32.9;;;19.8;;
52342;SDS011;38277;51.972;4.624;2023-01-29T18:45:51;35.4;;;21.1;;
52342;SDS011;38277;51.972;4.624;2023-01-29T18:49:48;36.5;;;20.0;;
52342;SDS011;38277;51.972;4.624;2023-01-29T18:53:55;31.9;;;20.0;;
52342;SDS011;38277;51.972;4.624;2023-01-29T18:58:42;33.2;;;20.3;;
52342;SDS011;38277;51.972;4.624;2023-01-29T19:03:48;34.6;;;19.4;;
52342;SDS011;38277;51.972;4.624;2023-01-29T19:07:45;30.2;;;19.2;;
52342;SDS011;38277;51.972;4.624;2023-01-29T19:11:54;32.2;;;18.4;;
52342;SDS011;38277;51.972;4.624;2023-01-29T19:16:46;32.9;;;20.1;;
52342;SDS011;38277;51.972;4.624;2023-01-29T19:22:00;30.9;;;20.3;;
52342;SDS011;38277;51.972;4.624;2023-01-29T19:25:27;34.2;;;20.3;;
52342;SDS011;38277;51.972;4.624;2023-01-29T19:30:49;34.6;;;21.5;;
52342;SDS011;38277;51.972;4.624;2023-01-29T19:34:30;34.6;;;21.6;;
52342;SDS011;38277;51.972;4.624;2023-01-29T19:39:59;36.3;;;20.5;;
52342;SDS011;38277;51.972;4.624;2023-01-29T19:43:47;37.8;;;21.5;;
52342;SDS011;38277;51.972;4.624;2023-01-29T19:48:15;34.4;;;21.0;;
52342;SDS011;38277;51.972;4.624;2023-01-29T19:52:21;39.7;;;21.2;;
52342;SDS011;38277;51.972;4.624;2023-01-29T19:58:01;34.4;;;21.6;;
52342;SDS011;38277;51.972;4.624;2023-01-29T20:01:21;33.2;;;22.0;;
52342;SDS011;38277;51.972;4.624;2023-01-29T20:05:50;33.4;;;21.0;;
52342;SDS011;38277;51.972;4.624;2023-01-29T20:10:32;35.3;;;22.4;;
52342;SDS011;38277;51.972;4.624;2023-01-29T20:19:25;41.2;;;23.5;;
52342;SDS011;38277;51.972;4.624;2023-01-29T20:24:17;40.8;;;23.6;;
52342;SDS011;38277;51.972;4.624;2023-01-29T20:28:38;40.0;;;22.7;;
52342;SDS011;38277;51.972;4.624;2023-01-29T20:33:17;40.8;;;24.3;;
52342;SDS011;38277;51.972;4.624;2023-01-29T20:37:35;39.2;;;23.2;;
52342;SDS011;38277;51.972;4.624;2023-01-29T20:42:08;38.4;;;23.5;;
52342;SDS011;38277;51.972;4.624;2023-01-29T20:46:31;37.0;;;22.6;;
52342;SDS011;38277;51.972;4.624;2023-01-29T20:55:30;35.9;;;23.7;;
52342;SDS011;38277;51.972;4.624;2023-01-29T21:00:18;43.5;;;24.0;;
52342;SDS011;38277;51.972;4.624;2023-01-29T21:04:36;42.2;;;25.4;;
52342;SDS011;38277;51.972;4.624;2023-01-29T21:09:14;37.7;;;22.8;;
52342;SDS011;38277;51.972;4.624;2023-01-29T21:18:17;37.1;;;22.2;;
52342;SDS011;38277;51.972;4.624;2023-01-29T21:22:22;39.1;;;23.2;;
52342;SDS011;38277;51.972;4.624;2023-01-29T21:26:59;36.3;;;23.1;;
52342;SDS011;38277;51.972;4.624;2023-01-29T21:31:20;36.3;;;22.3;;
52342;SDS011;38277;51.972;4.624;2023-01-29T21:36:36;37.7;;;22.3;;
52342;SDS011;38277;51.972;4.624;2023-01-29T21:40:46;41.0;;;24.0;;
52342;SDS011;38277;51.972;4.624;2023-01-29T21:44:51;34.3;;;21.9;;
52342;SDS011;38277;51.972;4.624;2023-01-29T21:49:31;37.9;;;22.5;;
52342;SDS011;38277;51.972;4.624;2023-01-29T21:54:59;33.8;;;22.2;;
52342;SDS011;38277;51.972;4.624;2023-01-29T21:58:47;34.6;;;21.5;;
52342;SDS011;38277;51.972;4.624;2023-01-29T22:03:12;35.5;;;22.1;;
52342;SDS011;38277;51.972;4.624;2023-01-29T22:07:26;36.0;;;21.5;;
52342;SDS011;38277;51.972;4.624;2023-01-29T22:11:49;36.9;;;21.8;;
52342;SDS011;38277;51.972;4.624;2023-01-29T22:16:27;33.6;;;20.6;;
52342;SDS011;38277;51.972;4.624;2023-01-29T22:25:32;35.2;;;17.5;;
52342;SDS011;38277;51.972;4.624;2023-01-29T22:30:00;36.7;;;19.4;;
52342;SDS011;38277;51.972;4.624;2023-01-29T22:34:20;31.8;;;18.2;;
52342;SDS011;38277;51.972;4.624;2023-01-29T22:39:09;37.8;;;17.5;;
52342;SDS011;38277;51.972;4.624;2023-01-29T22:43:27;30.7;;;16.6;;
52342;SDS011;38277;51.972;4.624;2023-01-29T22:47:54;29.9;;;15.5;;
52342;SDS011;38277;51.972;4.624;2023-01-29T22:52:24;27.8;;;15.3;;
52342;SDS011;38277;51.972;4.624;2023-01-29T23:01:32;25.8;;;11.5;;
52342;SDS011;38277;51.972;4.624;2023-01-29T23:06:11;19.6;;;9.5;;
52342;SDS011;38277;51.972;4.624;2023-01-29T23:10:48;18.8;;;8.6;;
52342;SDS011;38277;51.972;4.624;2023-01-29T23:15:10;20.5;;;7.7;;
52342;SDS011;38277;51.972;4.624;2023-01-29T23:20:27;16.7;;;6.7;;
52342;SDS011;38277;51.972;4.624;2023-01-29T23:23:59;18.6;;;6.4;;
52342;SDS011;38277;51.972;4.624;2023-01-29T23:28:39;19.8;;;7.1;;
52342;SDS011;38277;51.972;4.624;2023-01-29T23:33:06;15.5;;;6.2;;
52342;SDS011;38277;51.972;4.624;2023-01-29T23:38:33;17.0;;;6.2;;
52342;SDS011;38277;51.972;4.624;2023-01-29T23:42:18;20.9;;;7.4;;
52342;SDS011;38277;51.972;4.624;2023-01-29T23:47:09;14.9;;;6.2;;
52342;SDS011;38277;51.972;4.624;2023-01-29T23:50:57;15.9;;;6.1;;
52342;SDS011;38277;51.972;4.624;2023-01-29T23:56:11;12.2;;;5.6;;
